sensor_id;sensor_type;location;lat;lon;timestamp;P1;durP1;ratioP1;P2;durP2;ratioP2
74543;SDS011;63016;55.030;38.710;2023-02-01T00:00:47;35.30;;;13.82;;
74543;SDS011;63016;55.030;38.710;2023-02-01T00:03:13;30.88;;;12.88;;
74543;SDS011;63016;55.030;38.710;2023-02-01T00:05:39;31.88;;;13.77;;
74543;SDS011;63016;55.030;38.710;2023-02-01T00:08:05;31.65;;;13.02;;
74543;SDS011;63016;55.030;38.710;2023-02-01T00:10:30;33.75;;;14.52;;
74543;SDS011;63016;55.030;38.710;2023-02-01T00:12:56;33.38;;;13.98;;
74543;SDS011;63016;55.030;38.710;2023-02-01T00:15:21;31.85;;;13.57;;
74543;SDS011;63016;55.030;38.710;2023-02-01T00:17:48;35.40;;;13.77;;
74543;SDS011;63016;55.030;38.710;2023-02-01T00:20:17;36.00;;;14.50;;
74543;SDS011;63016;55.030;38.710;2023-02-01T00:22:43;34.17;;;14.98;;
74543;SDS011;63016;55.030;38.710;2023-02-01T00:25:08;35.35;;;13.38;;
74543;SDS011;63016;55.030;38.710;2023-02-01T00:27:34;33.00;;;13.68;;
74543;SDS011;63016;55.030;38.710;2023-02-01T00:29:59;37.33;;;13.85;;
74543;SDS011;63016;55.030;38.710;2023-02-01T00:32:25;31.67;;;13.38;;
74543;SDS011;63016;55.030;38.710;2023-02-01T00:34:50;33.72;;;14.27;;
74543;SDS011;63016;55.030;38.710;2023-02-01T00:37:16;36.22;;;13.10;;
74543;SDS011;63016;55.030;38.710;2023-02-01T00:39:41;32.50;;;13.18;;
74543;SDS011;63016;55.030;38.710;2023-02-01T00:42:07;31.73;;;13.05;;
74543;SDS011;63016;55.030;38.710;2023-02-01T00:44:33;34.95;;;14.10;;
74543;SDS011;63016;55.030;38.710;2023-02-01T00:47:00;35.58;;;12.95;;
74543;SDS011;63016;55.030;38.710;2023-02-01T00:49:25;35.28;;;14.27;;
74543;SDS011;63016;55.030;38.710;2023-02-01T00:51:51;34.58;;;13.95;;
74543;SDS011;63016;55.030;38.710;2023-02-01T00:54:17;33.05;;;14.48;;
74543;SDS011;63016;55.030;38.710;2023-02-01T00:56:42;34.33;;;12.82;;
74543;SDS011;63016;55.030;38.710;2023-02-01T00:59:10;35.65;;;13.63;;
74543;SDS011;63016;55.030;38.710;2023-02-01T01:01:37;37.22;;;13.85;;
74543;SDS011;63016;55.030;38.710;2023-02-01T01:04:02;32.67;;;12.57;;
74543;SDS011;63016;55.030;38.710;2023-02-01T01:06:29;32.97;;;13.55;;
74543;SDS011;63016;55.030;38.710;2023-02-01T01:08:57;35.63;;;13.15;;
74543;SDS011;63016;55.030;38.710;2023-02-01T01:11:24;38.90;;;14.15;;
74543;SDS011;63016;55.030;38.710;2023-02-01T01:13:52;35.78;;;14.05;;
74543;SDS011;63016;55.030;38.710;2023-02-01T01:16:22;35.72;;;13.18;;
74543;SDS011;63016;55.030;38.710;2023-02-01T01:18:48;32.22;;;13.27;;
74543;SDS011;63016;55.030;38.710;2023-02-01T01:21:15;36.53;;;13.75;;
74543;SDS011;63016;55.030;38.710;2023-02-01T01:23:41;34.25;;;12.95;;
74543;SDS011;63016;55.030;38.710;2023-02-01T01:26:09;36.45;;;13.95;;
74543;SDS011;63016;55.030;38.710;2023-02-01T01:28:38;36.10;;;13.48;;
74543;SDS011;63016;55.030;38.710;2023-02-01T01:31:03;35.30;;;13.90;;
74543;SDS011;63016;55.030;38.710;2023-02-01T01:33:32;34.97;;;14.55;;
74543;SDS011;63016;55.030;38.710;2023-02-01T01:35:57;33.65;;;12.95;;
74543;SDS011;63016;55.030;38.710;2023-02-01T01:38:23;35.03;;;13.63;;
74543;SDS011;63016;55.030;38.710;2023-02-01T01:40:48;33.95;;;13.15;;
74543;SDS011;63016;55.030;38.710;2023-02-01T01:43:18;34.20;;;13.07;;
74543;SDS011;63016;55.030;38.710;2023-02-01T01:45:47;36.75;;;13.65;;
74543;SDS011;63016;55.030;38.710;2023-02-01T01:48:15;37.20;;;14.05;;
74543;SDS011;63016;55.030;38.710;2023-02-01T01:50:47;35.95;;;14.30;;
74543;SDS011;63016;55.030;38.710;2023-02-01T01:53:18;36.83;;;13.77;;
74543;SDS011;63016;55.030;38.710;2023-02-01T01:55:48;37.50;;;13.73;;
74543;SDS011;63016;55.030;38.710;2023-02-01T01:58:17;32.50;;;12.18;;
74543;SDS011;63016;55.030;38.710;2023-02-01T02:00:45;36.33;;;13.32;;
74543;SDS011;63016;55.030;38.710;2023-02-01T02:05:40;35.20;;;13.77;;
74543;SDS011;63016;55.030;38.710;2023-02-01T02:08:07;36.92;;;13.00;;
74543;SDS011;63016;55.030;38.710;2023-02-01T02:10:32;30.95;;;12.18;;
74543;SDS011;63016;55.030;38.710;2023-02-01T02:13:17;33.20;;;13.05;;
74543;SDS011;63016;55.030;38.710;2023-02-01T02:15:45;37.55;;;14.02;;
74543;SDS011;63016;55.030;38.710;2023-02-01T02:27:12;38.97;;;13.77;;
74543;SDS011;63016;55.030;38.710;2023-02-01T02:29:59;35.50;;;13.48;;
74543;SDS011;63016;55.030;38.710;2023-02-01T02:38:13;33.47;;;13.00;;
74543;SDS011;63016;55.030;38.710;2023-02-01T02:43:23;34.83;;;12.57;;
74543;SDS011;63016;55.030;38.710;2023-02-01T02:46:19;37.40;;;13.25;;
74543;SDS011;63016;55.030;38.710;2023-02-01T02:52:05;37.45;;;13.27;;
74543;SDS011;63016;55.030;38.710;2023-02-01T02:54:56;36.08;;;12.48;;
74543;SDS011;63016;55.030;38.710;2023-02-01T02:57:26;35.60;;;13.13;;
74543;SDS011;63016;55.030;38.710;2023-02-01T03:00:16;34.22;;;12.85;;
74543;SDS011;63016;55.030;38.710;2023-02-01T03:03:02;36.90;;;12.88;;
74543;SDS011;63016;55.030;38.710;2023-02-01T03:05:47;33.55;;;12.55;;
74543;SDS011;63016;55.030;38.710;2023-02-01T03:08:27;37.55;;;13.27;;
74543;SDS011;63016;55.030;38.710;2023-02-01T03:10:59;30.45;;;12.77;;
74543;SDS011;63016;55.030;38.710;2023-02-01T03:16:28;35.90;;;13.27;;
74543;SDS011;63016;55.030;38.710;2023-02-01T03:18:58;35.03;;;13.05;;
74543;SDS011;63016;55.030;38.710;2023-02-01T03:21:31;37.55;;;13.48;;
74543;SDS011;63016;55.030;38.710;2023-02-01T03:24:21;32.15;;;13.20;;
74543;SDS011;63016;55.030;38.710;2023-02-01T03:27:00;36.17;;;14.15;;
74543;SDS011;63016;55.030;38.710;2023-02-01T03:32:21;34.22;;;12.75;;
74543;SDS011;63016;55.030;38.710;2023-02-01T03:34:47;40.28;;;13.57;;
74543;SDS011;63016;55.030;38.710;2023-02-01T03:37:16;38.00;;;13.65;;
74543;SDS011;63016;55.030;38.710;2023-02-01T03:40:00;35.20;;;13.93;;
74543;SDS011;63016;55.030;38.710;2023-02-01T03:45:10;38.28;;;14.98;;
74543;SDS011;63016;55.030;38.710;2023-02-01T03:47:37;42.10;;;14.63;;
74543;SDS011;63016;55.030;38.710;2023-02-01T03:50:12;37.95;;;13.20;;
74543;SDS011;63016;55.030;38.710;2023-02-01T03:52:44;37.33;;;14.63;;
74543;SDS011;63016;55.030;38.710;2023-02-01T03:55:29;42.25;;;14.38;;
74543;SDS011;63016;55.030;38.710;2023-02-01T03:58:01;42.00;;;15.30;;
74543;SDS011;63016;55.030;38.710;2023-02-01T04:00:31;39.10;;;13.95;;
74543;SDS011;63016;55.030;38.710;2023-02-01T04:02:56;38.63;;;13.77;;
74543;SDS011;63016;55.030;38.710;2023-02-01T04:05:22;40.45;;;14.55;;
74543;SDS011;63016;55.030;38.710;2023-02-01T04:07:48;49.58;;;15.27;;
74543;SDS011;63016;55.030;38.710;2023-02-01T04:10:13;46.72;;;15.82;;
74543;SDS011;63016;55.030;38.710;2023-02-01T04:12:39;36.97;;;14.75;;
74543;SDS011;63016;55.030;38.710;2023-02-01T04:15:05;36.42;;;13.35;;
74543;SDS011;63016;55.030;38.710;2023-02-01T04:17:32;41.83;;;15.15;;
74543;SDS011;63016;55.030;38.710;2023-02-01T04:19:57;41.50;;;15.00;;
74543;SDS011;63016;55.030;38.710;2023-02-01T04:22:23;46.60;;;14.90;;
74543;SDS011;63016;55.030;38.710;2023-02-01T04:24:48;44.83;;;14.65;;
74543;SDS011;63016;55.030;38.710;2023-02-01T04:27:14;43.80;;;15.52;;
74543;SDS011;63016;55.030;38.710;2023-02-01T04:29:39;40.53;;;15.30;;
74543;SDS011;63016;55.030;38.710;2023-02-01T04:32:06;43.33;;;16.00;;
74543;SDS011;63016;55.030;38.710;2023-02-01T04:34:31;43.05;;;15.75;;
74543;SDS011;63016;55.030;38.710;2023-02-01T04:36:57;42.22;;;15.63;;
74543;SDS011;63016;55.030;38.710;2023-02-01T04:39:22;43.25;;;15.23;;
74543;SDS011;63016;55.030;38.710;2023-02-01T04:41:48;42.13;;;15.35;;
74543;SDS011;63016;55.030;38.710;2023-02-01T04:44:14;44.33;;;16.50;;
74543;SDS011;63016;55.030;38.710;2023-02-01T04:46:41;44.60;;;15.35;;
74543;SDS011;63016;55.030;38.710;2023-02-01T04:49:08;44.78;;;15.88;;
74543;SDS011;63016;55.030;38.710;2023-02-01T04:51:34;44.60;;;15.40;;
74543;SDS011;63016;55.030;38.710;2023-02-01T04:54:00;43.13;;;15.57;;
74543;SDS011;63016;55.030;38.710;2023-02-01T04:56:25;46.70;;;15.43;;
74543;SDS011;63016;55.030;38.710;2023-02-01T04:58:51;41.63;;;15.40;;
74543;SDS011;63016;55.030;38.710;2023-02-01T05:01:17;39.58;;;13.95;;
74543;SDS011;63016;55.030;38.710;2023-02-01T05:03:43;43.90;;;15.40;;
74543;SDS011;63016;55.030;38.710;2023-02-01T05:06:08;39.33;;;14.70;;
74543;SDS011;63016;55.030;38.710;2023-02-01T05:08:34;43.13;;;14.45;;
74543;SDS011;63016;55.030;38.710;2023-02-01T05:10:59;41.75;;;15.05;;
74543;SDS011;63016;55.030;38.710;2023-02-01T05:13:27;42.25;;;15.32;;
74543;SDS011;63016;55.030;38.710;2023-02-01T05:16:12;41.38;;;15.45;;
74543;SDS011;63016;55.030;38.710;2023-02-01T05:18:37;47.00;;;15.35;;
74543;SDS011;63016;55.030;38.710;2023-02-01T05:21:03;43.95;;;15.93;;
74543;SDS011;63016;55.030;38.710;2023-02-01T05:23:28;41.33;;;15.52;;
74543;SDS011;63016;55.030;38.710;2023-02-01T05:26:00;38.97;;;14.63;;
74543;SDS011;63016;55.030;38.710;2023-02-01T05:28:27;46.50;;;15.48;;
74543;SDS011;63016;55.030;38.710;2023-02-01T05:30:52;43.55;;;15.32;;
74543;SDS011;63016;55.030;38.710;2023-02-01T05:33:18;44.50;;;14.88;;
74543;SDS011;63016;55.030;38.710;2023-02-01T05:35:44;40.83;;;14.38;;
74543;SDS011;63016;55.030;38.710;2023-02-01T05:38:09;42.00;;;15.10;;
74543;SDS011;63016;55.030;38.710;2023-02-01T05:40:35;40.58;;;14.95;;
74543;SDS011;63016;55.030;38.710;2023-02-01T05:43:00;43.33;;;15.63;;
74543;SDS011;63016;55.030;38.710;2023-02-01T05:45:26;44.63;;;15.20;;
74543;SDS011;63016;55.030;38.710;2023-02-01T05:47:51;42.38;;;15.32;;
74543;SDS011;63016;55.030;38.710;2023-02-01T05:50:17;43.25;;;15.88;;
74543;SDS011;63016;55.030;38.710;2023-02-01T05:52:42;42.13;;;15.27;;
74543;SDS011;63016;55.030;38.710;2023-02-01T05:55:08;39.22;;;14.55;;
74543;SDS011;63016;55.030;38.710;2023-02-01T05:57:33;41.42;;;14.95;;
74543;SDS011;63016;55.030;38.710;2023-02-01T05:59:59;39.72;;;13.85;;
74543;SDS011;63016;55.030;38.710;2023-02-01T06:02:24;41.83;;;14.52;;
74543;SDS011;63016;55.030;38.710;2023-02-01T06:04:50;41.67;;;14.90;;
74543;SDS011;63016;55.030;38.710;2023-02-01T06:07:16;42.42;;;14.98;;
74543;SDS011;63016;55.030;38.710;2023-02-01T06:09:42;39.80;;;14.13;;
74543;SDS011;63016;55.030;38.710;2023-02-01T06:12:07;40.25;;;14.32;;
74543;SDS011;63016;55.030;38.710;2023-02-01T06:14:32;42.67;;;14.70;;
74543;SDS011;63016;55.030;38.710;2023-02-01T06:16:58;39.35;;;14.10;;
74543;SDS011;63016;55.030;38.710;2023-02-01T06:19:24;41.13;;;13.98;;
74543;SDS011;63016;55.030;38.710;2023-02-01T06:21:50;40.85;;;15.00;;
74543;SDS011;63016;55.030;38.710;2023-02-01T06:24:16;43.03;;;15.75;;
74543;SDS011;63016;55.030;38.710;2023-02-01T06:26:41;41.25;;;14.20;;
74543;SDS011;63016;55.030;38.710;2023-02-01T06:29:09;40.92;;;14.90;;
74543;SDS011;63016;55.030;38.710;2023-02-01T06:31:35;39.97;;;14.30;;
74543;SDS011;63016;55.030;38.710;2023-02-01T06:34:00;38.10;;;14.05;;
74543;SDS011;63016;55.030;38.710;2023-02-01T06:36:26;41.92;;;14.85;;
74543;SDS011;63016;55.030;38.710;2023-02-01T06:38:51;40.25;;;14.90;;
74543;SDS011;63016;55.030;38.710;2023-02-01T06:41:17;39.85;;;13.18;;
74543;SDS011;63016;55.030;38.710;2023-02-01T06:43:42;37.42;;;14.13;;
74543;SDS011;63016;55.030;38.710;2023-02-01T06:46:09;36.67;;;13.52;;
74543;SDS011;63016;55.030;38.710;2023-02-01T06:48:36;41.30;;;13.55;;
74543;SDS011;63016;55.030;38.710;2023-02-01T06:51:02;39.05;;;14.65;;
74543;SDS011;63016;55.030;38.710;2023-02-01T06:53:28;37.42;;;12.82;;
74543;SDS011;63016;55.030;38.710;2023-02-01T06:55:57;36.97;;;13.73;;
74543;SDS011;63016;55.030;38.710;2023-02-01T06:58:27;34.40;;;13.30;;
74543;SDS011;63016;55.030;38.710;2023-02-01T07:00:56;34.25;;;13.45;;
74543;SDS011;63016;55.030;38.710;2023-02-01T07:03:22;39.67;;;13.57;;
74543;SDS011;63016;55.030;38.710;2023-02-01T07:05:48;31.13;;;12.82;;
74543;SDS011;63016;55.030;38.710;2023-02-01T07:08:13;35.42;;;12.60;;
74543;SDS011;63016;55.030;38.710;2023-02-01T07:10:39;33.17;;;12.75;;
74543;SDS011;63016;55.030;38.710;2023-02-01T07:13:04;34.58;;;13.35;;
74543;SDS011;63016;55.030;38.710;2023-02-01T07:15:30;33.22;;;12.45;;
74543;SDS011;63016;55.030;38.710;2023-02-01T07:17:56;36.05;;;13.15;;
74543;SDS011;63016;55.030;38.710;2023-02-01T07:20:21;33.78;;;12.30;;
74543;SDS011;63016;55.030;38.710;2023-02-01T07:22:48;31.00;;;12.43;;
74543;SDS011;63016;55.030;38.710;2023-02-01T07:25:13;33.47;;;12.82;;
74543;SDS011;63016;55.030;38.710;2023-02-01T07:27:39;33.75;;;12.23;;
74543;SDS011;63016;55.030;38.710;2023-02-01T07:30:05;33.90;;;11.95;;
74543;SDS011;63016;55.030;38.710;2023-02-01T07:32:31;32.75;;;11.82;;
74543;SDS011;63016;55.030;38.710;2023-02-01T07:34:57;30.58;;;11.25;;
74543;SDS011;63016;55.030;38.710;2023-02-01T07:37:23;32.38;;;11.95;;
74543;SDS011;63016;55.030;38.710;2023-02-01T07:39:52;35.55;;;12.82;;
74543;SDS011;63016;55.030;38.710;2023-02-01T07:42:18;34.25;;;12.70;;
74543;SDS011;63016;55.030;38.710;2023-02-01T07:44:44;31.35;;;11.75;;
74543;SDS011;63016;55.030;38.710;2023-02-01T07:47:09;31.73;;;12.52;;
74543;SDS011;63016;55.030;38.710;2023-02-01T07:49:35;35.78;;;12.43;;
74543;SDS011;63016;55.030;38.710;2023-02-01T07:52:00;30.42;;;12.63;;
74543;SDS011;63016;55.030;38.710;2023-02-01T07:54:26;36.25;;;13.23;;
74543;SDS011;63016;55.030;38.710;2023-02-01T07:56:51;31.58;;;11.95;;
74543;SDS011;63016;55.030;38.710;2023-02-01T07:59:17;33.42;;;12.02;;
74543;SDS011;63016;55.030;38.710;2023-02-01T08:01:42;32.40;;;12.77;;
74543;SDS011;63016;55.030;38.710;2023-02-01T08:04:09;34.78;;;12.75;;
74543;SDS011;63016;55.030;38.710;2023-02-01T08:06:37;33.90;;;12.32;;
74543;SDS011;63016;55.030;38.710;2023-02-01T08:09:03;34.03;;;12.85;;
74543;SDS011;63016;55.030;38.710;2023-02-01T08:11:29;29.73;;;12.63;;
74543;SDS011;63016;55.030;38.710;2023-02-01T08:13:55;34.03;;;12.73;;
74543;SDS011;63016;55.030;38.710;2023-02-01T08:16:34;32.28;;;12.02;;
74543;SDS011;63016;55.030;38.710;2023-02-01T08:19:01;40.75;;;13.50;;
74543;SDS011;63016;55.030;38.710;2023-02-01T08:21:27;33.58;;;12.02;;
74543;SDS011;63016;55.030;38.710;2023-02-01T08:24:02;31.63;;;11.88;;
74543;SDS011;63016;55.030;38.710;2023-02-01T08:26:28;34.17;;;13.00;;
74543;SDS011;63016;55.030;38.710;2023-02-01T08:28:55;37.40;;;12.25;;
74543;SDS011;63016;55.030;38.710;2023-02-01T08:31:23;34.00;;;12.05;;
74543;SDS011;63016;55.030;38.710;2023-02-01T08:33:51;34.42;;;11.50;;
74543;SDS011;63016;55.030;38.710;2023-02-01T08:36:18;31.13;;;10.93;;
74543;SDS011;63016;55.030;38.710;2023-02-01T08:38:45;31.98;;;12.18;;
74543;SDS011;63016;55.030;38.710;2023-02-01T08:41:12;33.75;;;11.68;;
74543;SDS011;63016;55.030;38.710;2023-02-01T08:43:39;33.92;;;11.68;;
74543;SDS011;63016;55.030;38.710;2023-02-01T08:46:05;32.15;;;11.52;;
74543;SDS011;63016;55.030;38.710;2023-02-01T08:48:32;34.35;;;12.77;;
74543;SDS011;63016;55.030;38.710;2023-02-01T08:51:00;34.50;;;13.60;;
74543;SDS011;63016;55.030;38.710;2023-02-01T08:53:26;27.52;;;11.32;;
74543;SDS011;63016;55.030;38.710;2023-02-01T08:55:52;32.90;;;12.05;;
74543;SDS011;63016;55.030;38.710;2023-02-01T08:58:17;30.95;;;11.75;;
74543;SDS011;63016;55.030;38.710;2023-02-01T09:00:44;29.75;;;11.60;;
74543;SDS011;63016;55.030;38.710;2023-02-01T09:03:10;29.92;;;11.02;;
74543;SDS011;63016;55.030;38.710;2023-02-01T09:05:36;32.72;;;11.02;;
74543;SDS011;63016;55.030;38.710;2023-02-01T09:08:02;32.55;;;11.73;;
74543;SDS011;63016;55.030;38.710;2023-02-01T09:10:27;31.05;;;11.40;;
74543;SDS011;63016;55.030;38.710;2023-02-01T09:12:53;30.85;;;12.40;;
74543;SDS011;63016;55.030;38.710;2023-02-01T09:15:18;30.83;;;11.32;;
74543;SDS011;63016;55.030;38.710;2023-02-01T09:17:44;26.65;;;10.48;;
74543;SDS011;63016;55.030;38.710;2023-02-01T09:20:10;30.30;;;11.38;;
74543;SDS011;63016;55.030;38.710;2023-02-01T09:22:36;27.90;;;11.32;;
74543;SDS011;63016;55.030;38.710;2023-02-01T09:25:02;32.15;;;11.70;;
74543;SDS011;63016;55.030;38.710;2023-02-01T09:27:27;28.05;;;10.25;;
74543;SDS011;63016;55.030;38.710;2023-02-01T09:29:53;31.10;;;11.73;;
74543;SDS011;63016;55.030;38.710;2023-02-01T09:32:19;27.88;;;11.20;;
74543;SDS011;63016;55.030;38.710;2023-02-01T09:34:45;29.40;;;10.82;;
74543;SDS011;63016;55.030;38.710;2023-02-01T09:37:11;26.83;;;10.70;;
74543;SDS011;63016;55.030;38.710;2023-02-01T09:39:37;28.00;;;11.07;;
74543;SDS011;63016;55.030;38.710;2023-02-01T09:42:06;31.08;;;11.70;;
74543;SDS011;63016;55.030;38.710;2023-02-01T09:47:46;29.67;;;11.38;;
74543;SDS011;63016;55.030;38.710;2023-02-01T09:50:19;31.67;;;11.90;;
74543;SDS011;63016;55.030;38.710;2023-02-01T09:52:55;31.25;;;12.07;;
74543;SDS011;63016;55.030;38.710;2023-02-01T09:58:02;29.77;;;11.77;;
74543;SDS011;63016;55.030;38.710;2023-02-01T10:00:36;29.33;;;11.20;;
74543;SDS011;63016;55.030;38.710;2023-02-01T10:03:04;31.17;;;11.70;;
74543;SDS011;63016;55.030;38.710;2023-02-01T10:08:57;29.77;;;10.90;;
74543;SDS011;63016;55.030;38.710;2023-02-01T10:11:50;29.27;;;11.38;;
74543;SDS011;63016;55.030;38.710;2023-02-01T10:27:21;26.60;;;10.60;;
74543;SDS011;63016;55.030;38.710;2023-02-01T10:29:58;29.08;;;11.98;;
74543;SDS011;63016;55.030;38.710;2023-02-01T10:32:32;30.70;;;11.48;;
74543;SDS011;63016;55.030;38.710;2023-02-01T10:35:00;29.70;;;10.90;;
74543;SDS011;63016;55.030;38.710;2023-02-01T10:37:34;28.63;;;11.20;;
74543;SDS011;63016;55.030;38.710;2023-02-01T10:40:01;30.77;;;11.30;;
74543;SDS011;63016;55.030;38.710;2023-02-01T10:42:46;25.60;;;10.38;;
74543;SDS011;63016;55.030;38.710;2023-02-01T10:45:15;27.02;;;10.80;;
74543;SDS011;63016;55.030;38.710;2023-02-01T10:47:44;24.65;;;10.57;;
74543;SDS011;63016;55.030;38.710;2023-02-01T10:53:03;25.13;;;10.52;;
74543;SDS011;63016;55.030;38.710;2023-02-01T10:58:07;26.25;;;11.02;;
74543;SDS011;63016;55.030;38.710;2023-02-01T11:00:45;22.60;;;9.80;;
74543;SDS011;63016;55.030;38.710;2023-02-01T11:06:17;26.38;;;10.43;;
74543;SDS011;63016;55.030;38.710;2023-02-01T11:08:53;22.17;;;9.68;;
74543;SDS011;63016;55.030;38.710;2023-02-01T11:14:17;23.73;;;9.32;;
74543;SDS011;63016;55.030;38.710;2023-02-01T11:19:20;24.58;;;9.52;;
74543;SDS011;63016;55.030;38.710;2023-02-01T11:21:53;27.30;;;10.95;;
74543;SDS011;63016;55.030;38.710;2023-02-01T11:24:29;23.52;;;9.82;;
74543;SDS011;63016;55.030;38.710;2023-02-01T11:26:59;25.17;;;10.25;;
74543;SDS011;63016;55.030;38.710;2023-02-01T11:29:29;22.65;;;9.20;;
74543;SDS011;63016;55.030;38.710;2023-02-01T11:32:01;21.05;;;9.20;;
74543;SDS011;63016;55.030;38.710;2023-02-01T11:34:32;22.52;;;10.00;;
74543;SDS011;63016;55.030;38.710;2023-02-01T11:37:22;24.17;;;9.55;;
74543;SDS011;63016;55.030;38.710;2023-02-01T11:40:02;23.00;;;9.68;;
74543;SDS011;63016;55.030;38.710;2023-02-01T11:42:56;25.98;;;10.23;;
74543;SDS011;63016;55.030;38.710;2023-02-01T11:45:30;30.20;;;10.38;;
74543;SDS011;63016;55.030;38.710;2023-02-01T11:47:59;27.42;;;10.80;;
74543;SDS011;63016;55.030;38.710;2023-02-01T11:58:45;25.23;;;10.65;;
74543;SDS011;63016;55.030;38.710;2023-02-01T12:06:44;23.70;;;10.40;;
74543;SDS011;63016;55.030;38.710;2023-02-01T12:14:40;23.52;;;10.13;;
74543;SDS011;63016;55.030;38.710;2023-02-01T12:35:13;26.10;;;10.85;;
74543;SDS011;63016;55.030;38.710;2023-02-01T12:43:45;25.83;;;11.15;;
74543;SDS011;63016;55.030;38.710;2023-02-01T12:46:13;27.75;;;11.18;;
74543;SDS011;63016;55.030;38.710;2023-02-01T12:48:47;28.08;;;11.20;;
74543;SDS011;63016;55.030;38.710;2023-02-01T12:51:17;28.92;;;11.48;;
74543;SDS011;63016;55.030;38.710;2023-02-01T12:53:57;24.27;;;10.45;;
74543;SDS011;63016;55.030;38.710;2023-02-01T12:59:36;28.17;;;11.57;;
74543;SDS011;63016;55.030;38.710;2023-02-01T13:05:14;25.05;;;10.63;;
74543;SDS011;63016;55.030;38.710;2023-02-01T13:07:50;26.17;;;10.98;;
74543;SDS011;63016;55.030;38.710;2023-02-01T13:12:58;33.50;;;11.30;;
74543;SDS011;63016;55.030;38.710;2023-02-01T13:15:30;29.77;;;11.07;;
74543;SDS011;63016;55.030;38.710;2023-02-01T13:18:02;27.80;;;10.32;;
74543;SDS011;63016;55.030;38.710;2023-02-01T13:20:35;26.25;;;11.18;;
74543;SDS011;63016;55.030;38.710;2023-02-01T13:23:24;29.42;;;11.25;;
74543;SDS011;63016;55.030;38.710;2023-02-01T13:25:53;27.95;;;11.32;;
74543;SDS011;63016;55.030;38.710;2023-02-01T13:28:30;27.65;;;11.40;;
74543;SDS011;63016;55.030;38.710;2023-02-01T13:31:17;27.30;;;11.15;;
74543;SDS011;63016;55.030;38.710;2023-02-01T13:44:43;27.67;;;11.48;;
74543;SDS011;63016;55.030;38.710;2023-02-01T13:47:34;32.28;;;11.35;;
74543;SDS011;63016;55.030;38.710;2023-02-01T13:52:43;27.38;;;10.98;;
74543;SDS011;63016;55.030;38.710;2023-02-01T13:57:45;24.50;;;10.63;;
74543;SDS011;63016;55.030;38.710;2023-02-01T14:00:31;28.48;;;11.68;;
74543;SDS011;63016;55.030;38.710;2023-02-01T14:24:02;26.25;;;10.45;;
74543;SDS011;63016;55.030;38.710;2023-02-01T14:26:46;24.67;;;10.57;;
74543;SDS011;63016;55.030;38.710;2023-02-01T14:37:34;26.83;;;10.50;;
74543;SDS011;63016;55.030;38.710;2023-02-01T14:40:15;25.23;;;10.45;;
74543;SDS011;63016;55.030;38.710;2023-02-01T14:42:45;28.45;;;10.38;;
74543;SDS011;63016;55.030;38.710;2023-02-01T15:06:20;25.80;;;10.23;;
74543;SDS011;63016;55.030;38.710;2023-02-01T15:08:47;30.15;;;11.10;;
74543;SDS011;63016;55.030;38.710;2023-02-01T15:11:14;25.42;;;11.05;;
74543;SDS011;63016;55.030;38.710;2023-02-01T15:13:47;27.48;;;10.55;;
74543;SDS011;63016;55.030;38.710;2023-02-01T15:16:15;28.27;;;11.35;;
74543;SDS011;63016;55.030;38.710;2023-02-01T15:18:41;29.40;;;10.50;;
74543;SDS011;63016;55.030;38.710;2023-02-01T15:21:17;25.40;;;10.82;;
74543;SDS011;63016;55.030;38.710;2023-02-01T15:23:45;29.17;;;10.98;;
74543;SDS011;63016;55.030;38.710;2023-02-01T15:26:34;29.00;;;10.73;;
74543;SDS011;63016;55.030;38.710;2023-02-01T15:28:59;28.23;;;11.25;;
74543;SDS011;63016;55.030;38.710;2023-02-01T15:31:32;25.02;;;10.18;;
74543;SDS011;63016;55.030;38.710;2023-02-01T15:33:58;28.27;;;11.25;;
74543;SDS011;63016;55.030;38.710;2023-02-01T15:36:24;29.90;;;11.48;;
74543;SDS011;63016;55.030;38.710;2023-02-01T15:39:15;25.25;;;10.75;;
74543;SDS011;63016;55.030;38.710;2023-02-01T15:41:55;24.80;;;10.48;;
74543;SDS011;63016;55.030;38.710;2023-02-01T15:49:42;23.48;;;9.77;;
74543;SDS011;63016;55.030;38.710;2023-02-01T15:52:21;30.38;;;10.52;;
74543;SDS011;63016;55.030;38.710;2023-02-01T15:54:48;27.58;;;10.25;;
74543;SDS011;63016;55.030;38.710;2023-02-01T15:57:22;24.38;;;9.95;;
74543;SDS011;63016;55.030;38.710;2023-02-01T15:59:55;28.10;;;10.32;;
74543;SDS011;63016;55.030;38.710;2023-02-01T16:02:51;23.60;;;9.68;;
74543;SDS011;63016;55.030;38.710;2023-02-01T16:08:15;24.52;;;10.32;;
74543;SDS011;63016;55.030;38.710;2023-02-01T16:10:46;27.65;;;10.43;;
74543;SDS011;63016;55.030;38.710;2023-02-01T16:13:13;24.77;;;9.52;;
74543;SDS011;63016;55.030;38.710;2023-02-01T16:15:40;25.45;;;10.88;;
74543;SDS011;63016;55.030;38.710;2023-02-01T16:18:07;25.60;;;10.30;;
74543;SDS011;63016;55.030;38.710;2023-02-01T16:20:33;24.52;;;9.80;;
74543;SDS011;63016;55.030;38.710;2023-02-01T16:23:00;23.83;;;10.10;;
74543;SDS011;63016;55.030;38.710;2023-02-01T16:25:27;26.27;;;11.02;;
74543;SDS011;63016;55.030;38.710;2023-02-01T16:27:52;31.10;;;10.80;;
74543;SDS011;63016;55.030;38.710;2023-02-01T16:30:18;25.88;;;10.90;;
74543;SDS011;63016;55.030;38.710;2023-02-01T16:32:48;26.52;;;10.30;;
74543;SDS011;63016;55.030;38.710;2023-02-01T16:35:23;29.85;;;12.13;;
74543;SDS011;63016;55.030;38.710;2023-02-01T16:37:50;28.60;;;11.10;;
74543;SDS011;63016;55.030;38.710;2023-02-01T16:40:17;29.73;;;11.75;;
74543;SDS011;63016;55.030;38.710;2023-02-01T16:42:44;29.88;;;10.68;;
74543;SDS011;63016;55.030;38.710;2023-02-01T16:45:11;29.80;;;11.73;;
74543;SDS011;63016;55.030;38.710;2023-02-01T16:47:37;32.47;;;12.63;;
74543;SDS011;63016;55.030;38.710;2023-02-01T16:50:05;30.67;;;11.55;;
74543;SDS011;63016;55.030;38.710;2023-02-01T16:52:41;30.50;;;11.25;;
74543;SDS011;63016;55.030;38.710;2023-02-01T16:55:17;28.80;;;11.43;;
74543;SDS011;63016;55.030;38.710;2023-02-01T16:57:46;27.95;;;11.50;;
74543;SDS011;63016;55.030;38.710;2023-02-01T17:00:12;35.90;;;12.82;;
74543;SDS011;63016;55.030;38.710;2023-02-01T17:02:40;32.88;;;12.60;;
74543;SDS011;63016;55.030;38.710;2023-02-01T17:05:07;33.05;;;12.43;;
74543;SDS011;63016;55.030;38.710;2023-02-01T17:07:33;30.02;;;12.38;;
74543;SDS011;63016;55.030;38.710;2023-02-01T17:09:58;30.85;;;10.52;;
74543;SDS011;63016;55.030;38.710;2023-02-01T17:14:51;32.63;;;12.70;;
74543;SDS011;63016;55.030;38.710;2023-02-01T17:17:18;33.05;;;12.73;;
74543;SDS011;63016;55.030;38.710;2023-02-01T17:19:46;32.10;;;12.45;;
74543;SDS011;63016;55.030;38.710;2023-02-01T17:22:16;31.90;;;12.45;;
74543;SDS011;63016;55.030;38.710;2023-02-01T17:24:43;30.10;;;12.38;;
74543;SDS011;63016;55.030;38.710;2023-02-01T17:27:09;29.27;;;11.95;;
74543;SDS011;63016;55.030;38.710;2023-02-01T17:29:35;28.58;;;12.23;;
74543;SDS011;63016;55.030;38.710;2023-02-01T17:32:00;26.80;;;11.10;;
74543;SDS011;63016;55.030;38.710;2023-02-01T17:34:27;28.30;;;11.00;;
74543;SDS011;63016;55.030;38.710;2023-02-01T17:36:52;27.88;;;11.07;;